createdAt,value
2018-01-10T00:00:13.011Z,85.30
2018-01-10T00:02:41.164Z,85.30
2018-01-10T00:05:09.300Z,85.40
2018-01-10T00:07:37.481Z,85.50
2018-01-10T00:10:05.613Z,85.70
2018-01-10T00:12:33.769Z,85.80
2018-01-10T00:15:01.913Z,85.70
2018-01-10T00:17:30.074Z,85.80
2018-01-10T00:19:58.196Z,85.90
2018-01-10T00:22:26.358Z,86.00
2018-01-10T00:24:54.513Z,86.20
2018-01-10T00:27:22.674Z,86.30
2018-01-10T00:29:50.806Z,86.30
2018-01-10T00:32:18.971Z,86.40
2018-01-10T00:34:47.098Z,86.30
2018-01-10T00:37:15.252Z,86.40
2018-01-10T00:39:43.378Z,86.60
2018-01-10T00:42:11.538Z,86.90
2018-01-10T00:44:39.662Z,86.90
2018-01-10T00:47:07.821Z,87.30
2018-01-10T00:49:35.954Z,87.70
2018-01-10T00:52:04.118Z,88.00
2018-01-10T00:54:32.248Z,88.40
2018-01-10T00:57:00.372Z,88.80
2018-01-10T00:59:28.533Z,89.30
2018-01-10T01:01:56.668Z,89.70
2018-01-10T01:04:25.591Z,90.40
2018-01-10T01:06:53.718Z,90.30
2018-01-10T01:09:21.888Z,90.70
2018-01-10T01:11:50.014Z,91.10
2018-01-10T01:14:18.166Z,91.40
2018-01-10T01:16:46.303Z,91.70
2018-01-10T01:19:14.457Z,91.80
2018-01-10T01:21:42.584Z,92.20
2018-01-10T01:24:10.741Z,92.30
2018-01-10T01:26:38.868Z,92.60
2018-01-10T01:29:07.031Z,93.00
2018-01-10T01:31:35.167Z,93.10
2018-01-10T01:34:03.322Z,93.50
2018-01-10T01:36:31.455Z,94.10
2018-01-10T01:38:59.615Z,94.20
2018-01-10T01:41:27.744Z,94.30
2018-01-10T01:43:55.898Z,94.20
2018-01-10T01:46:24.033Z,94.40
2018-01-10T01:48:52.197Z,94.30
2018-01-10T01:51:20.331Z,94.40
2018-01-10T01:53:48.485Z,94.70
2018-01-10T01:56:16.625Z,94.80
2018-01-10T01:58:44.786Z,94.90
2018-01-10T02:01:12.922Z,94.70
2018-01-10T02:03:41.077Z,94.90
2018-01-10T02:06:09.204Z,95.00
2018-01-10T02:08:37.371Z,95.20
2018-01-10T02:11:06.269Z,95.60
2018-01-10T02:13:34.426Z,95.60
2018-01-10T02:16:03.325Z,96.00
2018-01-10T02:18:31.489Z,96.00
2018-01-10T02:21:00.393Z,96.30
2018-01-10T02:23:28.557Z,96.30
2018-01-10T02:25:57.449Z,96.40
2018-01-10T02:28:25.608Z,96.30
2018-01-10T02:30:53.742Z,96.30
2018-01-10T02:33:21.898Z,96.50
2018-01-10T02:35:50.025Z,96.60
2018-01-10T02:38:18.197Z,96.70
2018-01-10T02:40:46.325Z,96.60
2018-01-10T02:43:14.491Z,96.40
2018-01-10T02:45:42.627Z,96.60
2018-01-10T02:48:10.780Z,97.00
2018-01-10T02:50:38.930Z,97.10
2018-01-10T02:53:07.085Z,97.40
2018-01-10T02:55:35.222Z,97.50
2018-01-10T02:58:03.390Z,97.50
2018-01-10T03:00:31.524Z,97.50
2018-01-10T03:02:59.676Z,97.40
2018-01-10T03:05:27.809Z,97.40
2018-01-10T03:07:55.977Z,97.40
2018-01-10T03:10:24.110Z,97.40
2018-01-10T03:12:52.268Z,97.50
2018-01-10T03:15:20.397Z,97.60
2018-01-10T03:17:48.581Z,97.50
2018-01-10T03:20:16.722Z,97.70
2018-01-10T03:22:44.845Z,97.70
2018-01-10T03:25:13.005Z,97.80
2018-01-10T03:27:41.136Z,97.90
2018-01-10T03:30:09.298Z,97.90
2018-01-10T03:32:37.425Z,97.90
2018-01-10T03:35:05.577Z,98.50
2018-01-10T03:37:33.709Z,98.30
2018-01-10T03:40:01.870Z,98.30
2018-01-10T03:42:30.001Z,98.30
2018-01-10T03:44:59.009Z,98.30
2018-01-10T03:47:27.141Z,98.40
2018-01-10T03:49:55.306Z,98.50
2018-01-10T03:52:23.442Z,98.50
2018-01-10T03:54:52.365Z,98.70
2018-01-10T03:57:20.497Z,98.60
2018-01-10T03:59:49.425Z,98.60
2018-01-10T04:02:17.558Z,98.60
2018-01-10T04:04:45.713Z,98.60
2018-01-10T04:07:13.840Z,98.60
2018-01-10T04:09:42.001Z,98.70
2018-01-10T04:12:10.199Z,98.80
2018-01-10T04:14:38.351Z,98.80
2018-01-10T04:17:06.485Z,98.90
2018-01-10T04:19:34.640Z,98.80
2018-01-10T04:22:02.770Z,98.80
2018-01-10T04:24:30.931Z,98.90
2018-01-10T04:26:59.059Z,98.90
2018-01-10T04:29:27.225Z,98.90
2018-01-10T04:31:55.350Z,98.90
2018-01-10T04:34:24.274Z,98.90
2018-01-10T04:36:52.411Z,98.90
2018-01-10T04:39:21.339Z,98.90
2018-01-10T04:41:49.469Z,98.80
2018-01-10T04:44:18.399Z,99.00
2018-01-10T04:46:46.526Z,99.00
2018-01-10T04:49:14.690Z,99.10
2018-01-10T04:51:42.830Z,99.10
2018-01-10T04:54:10.984Z,99.10
2018-01-10T04:56:39.117Z,99.20
2018-01-10T04:59:08.041Z,99.70
2018-01-10T05:01:36.173Z,99.20
2018-01-10T05:04:04.329Z,99.30
2018-01-10T05:06:32.462Z,99.30
2018-01-10T05:09:00.629Z,99.30
2018-01-10T05:11:28.762Z,99.30
2018-01-10T05:13:56.922Z,99.30
2018-01-10T05:16:25.050Z,99.20
2018-01-10T05:18:53.209Z,99.30
2018-01-10T05:21:21.345Z,99.30
2018-01-10T05:23:49.506Z,99.40
2018-01-10T05:26:17.639Z,99.40
2018-01-10T05:28:45.795Z,99.50
2018-01-10T05:31:13.917Z,99.50
2018-01-10T05:33:42.077Z,99.40
2018-01-10T05:36:10.214Z,99.50
2018-01-10T05:38:38.373Z,99.40
2018-01-10T05:41:06.507Z,99.40
2018-01-10T05:43:34.636Z,99.50
2018-01-10T05:46:03.561Z,99.70
2018-01-10T05:48:31.698Z,99.60
2018-01-10T05:50:59.921Z,99.60
2018-01-10T05:53:28.061Z,99.50
2018-01-10T05:55:56.225Z,99.50
2018-01-10T05:58:25.126Z,99.60
2018-01-10T06:00:53.322Z,99.50
2018-01-10T06:03:21.445Z,99.60
2018-01-10T06:05:49.617Z,99.60
2018-01-10T06:08:17.744Z,99.60
2018-01-10T06:10:45.918Z,99.60
2018-01-10T06:13:14.044Z,99.60
2018-01-10T06:15:42.209Z,99.60
2018-01-10T06:18:10.340Z,99.50
2018-01-10T06:20:38.498Z,99.50
2018-01-10T06:23:06.631Z,99.60
2018-01-10T06:25:34.797Z,99.50
2018-01-10T06:28:02.925Z,99.60
2018-01-10T06:30:31.082Z,99.60
2018-01-10T06:32:59.975Z,99.80
2018-01-10T06:35:28.135Z,99.70
2018-01-10T06:37:57.036Z,99.90
2018-01-10T06:40:25.190Z,99.80
2018-01-10T06:42:53.320Z,99.90
2018-01-10T06:45:21.473Z,99.90
2018-01-10T06:47:49.607Z,99.90
2018-01-10T06:50:17.769Z,99.90
2018-01-10T06:52:45.898Z,99.90
2018-01-10T06:55:14.057Z,99.90
2018-01-10T06:57:42.194Z,99.90
2018-01-10T07:00:10.435Z,99.90
2018-01-10T07:02:38.561Z,99.90
2018-01-10T07:05:06.743Z,99.90
2018-01-10T07:07:34.878Z,99.90
2018-01-10T07:10:03.042Z,99.90
2018-01-10T07:12:31.166Z,99.90
2018-01-10T07:14:59.330Z,99.90
2018-01-10T07:17:27.469Z,99.90
2018-01-10T07:19:55.637Z,99.90
2018-01-10T07:22:23.782Z,99.90
2018-01-10T07:24:51.943Z,99.90
2018-01-10T07:27:20.077Z,99.90
2018-01-10T07:29:48.238Z,99.90
2018-01-10T07:32:16.374Z,99.90
2018-01-10T07:34:44.528Z,99.90
2018-01-10T07:37:12.672Z,99.90
2018-01-10T07:39:40.833Z,99.90
2018-01-10T07:42:08.966Z,99.90
2018-01-10T07:44:37.128Z,99.90
2018-01-10T07:47:05.258Z,99.90
2018-01-10T07:49:33.428Z,99.90
2018-01-10T07:52:01.556Z,99.90
2018-01-10T07:54:29.742Z,99.90
2018-01-10T07:56:57.880Z,99.90
2018-01-10T07:59:26.798Z,99.90
2018-01-10T08:01:54.937Z,99.90
2018-01-10T08:04:23.092Z,99.90
2018-01-10T08:06:51.225Z,99.90
2018-01-10T08:09:19.377Z,99.90
2018-01-10T08:11:47.538Z,99.90
2018-01-10T08:14:16.441Z,99.90
2018-01-10T08:16:44.615Z,99.90
2018-01-10T08:19:13.509Z,99.90
2018-01-10T08:21:41.665Z,99.90
2018-01-10T08:24:10.584Z,99.90
2018-01-10T08:26:38.732Z,99.90
2018-01-10T08:29:07.634Z,99.90
2018-01-10T08:31:35.789Z,99.90
2018-01-10T08:34:04.688Z,99.90
2018-01-10T08:36:32.857Z,99.90
2018-01-10T08:39:01.767Z,99.90
2018-01-10T08:41:29.921Z,99.90
2018-01-10T08:43:58.816Z,99.90
2018-01-10T08:46:27.002Z,99.90
2018-01-10T08:48:55.898Z,99.90
2018-01-10T08:51:24.059Z,99.90
2018-01-10T08:53:52.958Z,99.90
2018-01-10T08:56:21.116Z,99.90
2018-01-10T08:58:50.018Z,99.90
2018-01-10T09:01:18.173Z,99.90
2018-01-10T09:03:46.297Z,99.90
2018-01-10T09:06:14.475Z,99.90
2018-01-10T09:08:42.611Z,99.90
2018-01-10T09:11:10.768Z,99.90
2018-01-10T09:13:38.906Z,99.90
2018-01-10T09:16:07.062Z,99.90
2018-01-10T09:18:35.190Z,99.90
2018-01-10T09:21:03.344Z,99.90
2018-01-10T09:23:31.492Z,99.90
2018-01-10T09:25:59.654Z,99.90
2018-01-10T09:28:27.781Z,99.90
2018-01-10T09:30:55.941Z,99.90
2018-01-10T09:33:24.077Z,99.90
2018-01-10T09:35:52.234Z,99.90
2018-01-10T09:38:20.357Z,99.90
2018-01-10T09:40:48.521Z,99.90
2018-01-10T09:43:16.653Z,99.90
2018-01-10T09:45:44.811Z,99.90
2018-01-10T09:48:12.946Z,99.90
2018-01-10T09:50:41.144Z,99.90
2018-01-10T09:53:09.262Z,99.90
2018-01-10T09:55:37.417Z,99.90
2018-01-10T09:58:05.554Z,99.90
2018-01-10T10:00:33.715Z,99.90
2018-01-10T10:03:01.850Z,99.90
2018-01-10T10:05:30.012Z,99.90
2018-01-10T10:07:58.146Z,99.90
2018-01-10T10:10:26.300Z,99.90
2018-01-10T10:12:54.427Z,99.90
2018-01-10T10:15:22.580Z,99.90
2018-01-10T10:17:50.713Z,99.90
2018-01-10T10:20:18.871Z,99.90
2018-01-10T10:22:46.998Z,99.90
2018-01-10T10:25:15.921Z,99.90
2018-01-10T10:27:44.055Z,99.90
2018-01-10T10:30:12.210Z,99.90
2018-01-10T10:32:40.346Z,99.90
2018-01-10T10:35:08.498Z,99.90
2018-01-10T10:37:36.673Z,99.90
2018-01-10T10:40:04.810Z,99.90
2018-01-10T10:42:32.973Z,99.90
2018-01-10T10:45:01.105Z,99.90
2018-01-10T10:47:29.259Z,99.90
2018-01-10T10:49:58.156Z,99.90
2018-01-10T10:52:26.313Z,99.90
2018-01-10T10:54:55.219Z,99.90
2018-01-10T10:57:23.382Z,99.90
2018-01-10T10:59:52.280Z,99.90
2018-01-10T11:02:20.427Z,99.90
2018-01-10T11:04:48.577Z,99.90
2018-01-10T11:07:16.733Z,99.90
2018-01-10T11:09:46.032Z,99.90
2018-01-10T11:12:14.440Z,99.90
2018-01-10T11:14:42.568Z,99.90
2018-01-10T11:17:10.757Z,99.90
2018-01-10T11:19:38.881Z,99.90
2018-01-10T11:22:07.050Z,99.90
2018-01-10T11:24:35.177Z,99.90
2018-01-10T11:27:03.380Z,99.90
2018-01-10T11:29:31.506Z,99.90
2018-01-10T11:31:59.667Z,99.90
2018-01-10T11:34:27.803Z,99.90
2018-01-10T11:36:55.968Z,99.90
2018-01-10T11:39:24.114Z,99.90
2018-01-10T11:41:52.278Z,99.90
2018-01-10T11:44:20.421Z,99.90
2018-01-10T11:46:48.585Z,99.90
2018-01-10T11:49:16.721Z,99.90
2018-01-10T11:51:44.894Z,99.90
2018-01-10T11:54:13.038Z,99.90
2018-01-10T11:56:41.213Z,99.90
2018-01-10T11:59:10.120Z,99.90
2018-01-10T12:01:38.320Z,99.90
2018-01-10T12:04:06.462Z,99.90
2018-01-10T12:06:34.620Z,99.90
2018-01-10T12:09:02.756Z,99.90
2018-01-10T12:11:30.915Z,99.90
2018-01-10T12:13:59.053Z,99.90
2018-01-10T12:16:27.219Z,99.90
2018-01-10T12:18:55.344Z,99.90
2018-01-10T12:21:23.513Z,99.90
2018-01-10T12:23:51.655Z,99.90
2018-01-10T12:26:19.812Z,99.90
2018-01-10T12:28:47.960Z,99.90
2018-01-10T12:31:16.147Z,99.90
2018-01-10T12:33:44.287Z,99.90
2018-01-10T12:36:12.470Z,99.90
2018-01-10T12:38:40.602Z,99.90
2018-01-10T12:41:08.757Z,99.90
2018-01-10T12:43:36.895Z,99.90
2018-01-10T12:46:05.065Z,99.90
2018-01-10T12:48:33.214Z,99.90
2018-01-10T12:51:01.371Z,99.90
2018-01-10T12:53:29.501Z,99.90
2018-01-10T12:55:58.396Z,99.90
2018-01-10T12:58:27.325Z,99.90
2018-01-10T13:00:55.453Z,99.90
2018-01-10T13:03:23.611Z,99.90
2018-01-10T13:05:51.741Z,99.90
2018-01-10T13:08:19.911Z,99.90
2018-01-10T13:10:48.034Z,99.90
2018-01-10T13:13:16.194Z,99.90
2018-01-10T13:15:44.320Z,99.90
2018-01-10T13:18:12.482Z,99.90
2018-01-10T13:20:40.614Z,99.90
2018-01-10T13:23:08.774Z,99.90
2018-01-10T13:25:36.917Z,99.90
2018-01-10T13:28:05.075Z,99.90
2018-01-10T13:30:33.986Z,99.90
2018-01-10T13:33:02.339Z,99.90
2018-01-10T13:35:31.243Z,99.90
2018-01-10T13:37:59.419Z,99.90
2018-01-10T13:40:27.582Z,99.90
2018-01-10T13:42:55.779Z,99.90
2018-01-10T13:45:23.914Z,99.90
2018-01-10T13:47:52.080Z,99.90
2018-01-10T13:50:20.216Z,99.90
2018-01-10T13:52:48.382Z,99.90
2018-01-10T13:55:16.517Z,99.90
2018-01-10T13:57:45.453Z,99.90
2018-01-10T14:00:13.586Z,99.90
2018-01-10T14:02:42.510Z,99.90
2018-01-10T14:05:10.640Z,99.90
2018-01-10T14:07:39.569Z,99.90
2018-01-10T14:10:07.724Z,99.90
2018-01-10T14:12:36.645Z,99.90
2018-01-10T14:15:04.778Z,99.90
2018-01-10T14:17:33.706Z,99.90
2018-01-10T14:20:02.113Z,99.90
2018-01-10T14:22:30.282Z,99.90
2018-01-10T14:24:58.438Z,99.90
2018-01-10T14:27:26.603Z,99.90
2018-01-10T14:29:54.734Z,99.90
2018-01-10T14:32:22.887Z,99.90
2018-01-10T14:34:51.086Z,99.90
2018-01-10T14:37:19.491Z,99.90
2018-01-10T14:39:47.660Z,99.90
2018-01-10T14:42:15.862Z,99.90
2018-01-10T14:44:44.056Z,99.90
2018-01-10T14:47:12.223Z,99.90
2018-01-10T14:49:40.361Z,99.90
2018-01-10T14:52:08.520Z,99.90
2018-01-10T14:54:36.649Z,99.90
2018-01-10T14:57:04.805Z,99.90
2018-01-10T14:59:32.952Z,99.90
2018-01-10T15:02:01.113Z,99.90
2018-01-10T15:04:29.242Z,99.90
2018-01-10T15:06:57.407Z,99.90
2018-01-10T15:09:25.541Z,99.90
2018-01-10T15:11:53.711Z,99.90
2018-01-10T15:14:21.854Z,99.90
2018-01-10T15:16:50.030Z,99.90
2018-01-10T15:19:18.182Z,99.90
2018-01-10T15:21:46.321Z,99.90
2018-01-10T15:24:14.488Z,99.90
2018-01-10T15:26:42.674Z,99.90
2018-01-10T15:29:10.864Z,99.90
2018-01-10T15:31:39.177Z,99.90
2018-01-10T15:34:07.353Z,99.90
2018-01-10T15:36:35.513Z,99.90
2018-01-10T15:39:03.665Z,99.90
2018-01-10T15:41:32.798Z,99.90
2018-01-10T15:44:00.973Z,99.90
2018-01-10T15:46:29.106Z,99.90
2018-01-10T15:48:57.345Z,99.90
2018-01-10T15:51:25.476Z,99.90
2018-01-10T15:53:53.667Z,99.90
2018-01-10T15:56:22.013Z,99.90
2018-01-10T15:58:50.173Z,99.90
2018-01-10T16:01:18.769Z,99.90
2018-01-10T16:03:46.928Z,99.90
2018-01-10T16:06:15.181Z,99.90
2018-01-10T16:08:43.344Z,99.90
2018-01-10T16:11:11.526Z,99.90
2018-01-10T16:13:39.768Z,99.90
2018-01-10T16:16:07.948Z,99.90
2018-01-10T16:18:36.223Z,99.90
2018-01-10T16:21:04.361Z,99.90
2018-01-10T16:23:32.549Z,99.90
2018-01-10T16:26:00.695Z,99.90
2018-01-10T16:28:28.873Z,99.90
2018-01-10T16:30:57.061Z,99.90
2018-01-10T16:33:25.220Z,99.90
2018-01-10T16:35:53.374Z,99.90
2018-01-10T16:38:21.554Z,99.90
2018-01-10T16:40:49.681Z,99.90
2018-01-10T16:43:17.842Z,99.90
2018-01-10T16:45:45.977Z,99.90
2018-01-10T16:48:14.138Z,99.90
2018-01-10T16:50:42.270Z,99.90
2018-01-10T16:53:10.445Z,99.90
2018-01-10T16:55:38.568Z,99.90
2018-01-10T16:58:06.741Z,99.90
2018-01-10T17:00:34.873Z,99.90
2018-01-10T17:03:03.037Z,99.90
2018-01-10T17:05:31.169Z,99.90
2018-01-10T17:07:59.329Z,99.90
2018-01-10T17:10:27.449Z,99.90
2018-01-10T17:12:55.605Z,99.90
2018-01-10T17:15:23.748Z,99.90
2018-01-10T17:17:51.901Z,99.90
2018-01-10T17:20:20.795Z,99.90
2018-01-10T17:22:48.965Z,99.90
2018-01-10T17:25:17.866Z,99.90
2018-01-10T17:27:46.070Z,99.90
2018-01-10T17:30:14.227Z,99.90
2018-01-10T17:32:42.385Z,99.90
2018-01-10T17:35:10.530Z,99.90
2018-01-10T17:37:38.870Z,99.90
2018-01-10T17:40:07.016Z,99.90
2018-01-10T17:42:35.713Z,99.90
2018-01-10T17:45:03.890Z,99.90
2018-01-10T17:47:32.027Z,99.90
2018-01-10T17:50:00.229Z,99.90
2018-01-10T17:52:28.409Z,99.90
2018-01-10T17:54:56.579Z,99.90
2018-01-10T17:57:25.099Z,99.90
2018-01-10T17:59:53.661Z,99.90
2018-01-10T18:02:22.399Z,99.90
2018-01-10T18:04:51.828Z,99.90
2018-01-10T18:07:20.345Z,99.90
2018-01-10T18:09:48.841Z,99.90
2018-01-10T18:12:17.248Z,99.90
2018-01-10T18:14:45.724Z,99.90
2018-01-10T18:17:15.027Z,99.90
2018-01-10T18:19:43.480Z,99.90
2018-01-10T18:22:13.053Z,99.90
2018-01-10T18:24:41.526Z,99.90
2018-01-10T18:27:10.660Z,99.90
2018-01-10T18:29:39.404Z,99.90
2018-01-10T18:32:08.055Z,99.90
2018-01-10T18:34:37.350Z,99.90
2018-01-10T18:37:06.370Z,99.90
2018-01-10T18:39:34.676Z,99.90
2018-01-10T18:42:02.831Z,99.90
2018-01-10T18:44:31.217Z,99.90
2018-01-10T18:46:59.455Z,99.90
2018-01-10T18:49:27.703Z,99.90
2018-01-10T18:51:56.015Z,99.90
2018-01-10T18:54:24.419Z,99.90
2018-01-10T18:56:53.146Z,99.90
2018-01-10T18:59:21.349Z,99.90
2018-01-10T19:01:50.356Z,99.90
2018-01-10T19:04:19.023Z,99.90
2018-01-10T19:06:47.773Z,99.90
2018-01-10T19:09:16.468Z,99.90
2018-01-10T19:11:44.938Z,99.90
2018-01-10T19:14:13.685Z,99.90
2018-01-10T19:16:42.952Z,99.90
2018-01-10T19:19:11.613Z,99.90
2018-01-10T19:21:40.289Z,99.90
2018-01-10T19:24:08.887Z,99.90
2018-01-10T19:26:37.726Z,99.90
2018-01-10T19:29:05.915Z,99.90
2018-01-10T19:31:34.855Z,99.90
2018-01-10T19:34:03.145Z,99.90
2018-01-10T19:36:31.286Z,99.90
2018-01-10T19:38:59.477Z,99.90
2018-01-10T19:41:27.639Z,99.90
2018-01-10T19:43:55.966Z,99.90
2018-01-10T19:46:24.246Z,99.90
2018-01-10T19:48:52.634Z,99.90
2018-01-10T19:51:20.776Z,99.90
2018-01-10T19:53:48.962Z,99.90
2018-01-10T19:56:17.094Z,99.90
2018-01-10T19:58:45.362Z,99.90
2018-01-10T20:01:13.493Z,99.90
2018-01-10T20:03:48.482Z,99.90
2018-01-10T20:06:16.723Z,99.90
2018-01-10T20:08:44.925Z,99.90
2018-01-10T20:11:13.222Z,99.90
2018-01-10T20:13:41.447Z,99.90
2018-01-10T20:16:09.668Z,99.90
2018-01-10T20:18:37.827Z,99.90
2018-01-10T20:21:06.090Z,99.90
2018-01-10T20:23:34.279Z,99.90
2018-01-10T20:26:02.529Z,99.90
2018-01-10T20:28:30.733Z,99.90
2018-01-10T20:30:59.057Z,99.90
2018-01-10T20:33:27.406Z,99.90
2018-01-10T20:35:55.980Z,99.90
2018-01-10T20:38:24.173Z,99.90
2018-01-10T20:40:52.329Z,99.90
2018-01-10T20:43:20.503Z,99.90
2018-01-10T20:45:48.674Z,99.90
2018-01-10T20:48:16.843Z,99.90
2018-01-10T20:50:45.063Z,99.90
2018-01-10T20:53:13.183Z,99.90
2018-01-10T20:55:41.349Z,99.90
2018-01-10T20:58:09.514Z,99.90
2018-01-10T21:00:37.702Z,99.90
2018-01-10T21:03:05.839Z,99.90
2018-01-10T21:05:34.006Z,99.90
2018-01-10T21:08:02.171Z,99.90
2018-01-10T21:10:31.172Z,99.90
2018-01-10T21:13:00.098Z,99.90
2018-01-10T21:15:28.264Z,99.90
2018-01-10T21:17:56.398Z,99.90
2018-01-10T21:20:24.601Z,99.90
2018-01-10T21:22:52.789Z,99.90
2018-01-10T21:25:20.954Z,99.90
2018-01-10T21:27:49.109Z,99.90
2018-01-10T21:30:17.278Z,99.90
2018-01-10T21:32:46.176Z,99.90
2018-01-10T21:35:14.348Z,99.90
2018-01-10T21:37:43.245Z,99.90
2018-01-10T21:40:12.169Z,99.90
2018-01-10T21:42:40.322Z,99.90
2018-01-10T21:45:08.474Z,99.90
2018-01-10T21:47:37.399Z,99.90
2018-01-10T21:50:05.559Z,99.90
2018-01-10T21:52:33.689Z,99.90
2018-01-10T21:55:01.842Z,99.90
2018-01-10T21:57:29.976Z,99.90
2018-01-10T21:59:58.154Z,99.90
2018-01-10T22:02:26.278Z,99.90
2018-01-10T22:04:54.461Z,99.90
2018-01-10T22:07:22.600Z,99.90
2018-01-10T22:09:50.752Z,99.90
2018-01-10T22:12:18.888Z,99.90
2018-01-10T22:14:47.049Z,99.90
2018-01-10T22:17:15.179Z,99.90
2018-01-10T22:19:43.375Z,99.90
2018-01-10T22:22:11.498Z,99.90
2018-01-10T22:24:39.663Z,99.90
2018-01-10T22:27:07.821Z,99.90
2018-01-10T22:29:35.981Z,99.90
2018-01-10T22:32:04.118Z,99.90
2018-01-10T22:34:32.278Z,99.90
2018-01-10T22:37:00.408Z,99.90
2018-01-10T22:39:28.564Z,99.90
2018-01-10T22:41:56.705Z,99.90
2018-01-10T22:44:24.881Z,99.90
2018-01-10T22:46:53.015Z,99.90
2018-01-10T22:49:21.178Z,99.90
2018-01-10T22:51:49.318Z,99.90
2018-01-10T22:54:17.525Z,99.90
2018-01-10T22:56:45.657Z,99.90
2018-01-10T22:59:13.789Z,99.90
2018-01-10T23:01:41.951Z,99.90
2018-01-10T23:04:10.083Z,99.90
2018-01-10T23:06:38.246Z,99.90
2018-01-10T23:09:06.373Z,99.90
2018-01-10T23:11:34.534Z,99.90
2018-01-10T23:14:02.666Z,99.90
2018-01-10T23:16:30.820Z,99.90
2018-01-10T23:18:59.730Z,99.90
2018-01-10T23:21:27.894Z,99.90
2018-01-10T23:23:56.080Z,99.90
2018-01-10T23:26:24.242Z,99.90
2018-01-10T23:28:52.373Z,99.90
2018-01-10T23:31:20.532Z,99.90
2018-01-10T23:33:48.673Z,99.90
2018-01-10T23:36:16.831Z,99.90
2018-01-10T23:38:44.970Z,99.90
2018-01-10T23:41:13.125Z,99.90
2018-01-10T23:43:41.258Z,99.90
2018-01-10T23:46:09.420Z,99.90
2018-01-10T23:48:37.548Z,99.90
2018-01-10T23:51:05.715Z,99.90
2018-01-10T23:53:33.889Z,99.90
2018-01-10T23:56:02.058Z,99.90
2018-01-10T23:58:30.192Z,99.90
